Terminal Aerodrome Forecast
Issued by NWS Huntsville, AL

Home | Current Version | Previous Version | Text Only | Print | Product List | Glossary On
Versions: 1 2 3 4 5 6 7 8 9 10 11 12 13 14 15 16 17 18 19 20 21 22 23 24 25 26 27 28 29 30 31 32 33 34 35 36 37 38
000
FTUS44 KHUN 220527
TAFMSL
TAF
KMSL 220527Z 2206/2306 10007KT P6SM SCT120 BKN180
     FM220700 11008KT P6SM VCTS SCT015 OVC025CB
      TEMPO 2207/2211 VRB15G25KT 2SM TSRA OVC015CB
     FM221100 15010KT P6SM VCSH OVC015
     FM221500 17009KT 5SM -SHRA OVC020 PROB30 2216/2220 3SM -TSRA
      OVC012CB
     FM222000 27010KT 4SM -SHRA OVC012=

USA.gov is the U.S. government's official web portal to all federal, state and local government web resources and services.